sensor_id;sensor_type;location;lat;lon;timestamp;pressure;altitude;pressure_sealevel;temperature;humidity
69198;BME280;56311;50.298;8.514;2023-09-19T00:00:00;97150.0;;;19.9;81.8
69198;BME280;56311;50.298;8.514;2023-09-19T00:02:00;97150.0;;;19.9;81.5
69198;BME280;56311;50.298;8.514;2023-09-19T00:04:00;97160.0;;;19.9;81.2
69198;BME280;56311;50.298;8.514;2023-09-19T00:06:00;97160.0;;;19.8;81.7
69198;BME280;56311;50.298;8.514;2023-09-19T00:08:01;97160.0;;;20.1;80.6
69198;BME280;56311;50.298;8.514;2023-09-19T00:10:00;97160.0;;;20.0;80.5
69198;BME280;56311;50.298;8.514;2023-09-19T00:12:00;97170.0;;;20.0;80.8
69198;BME280;56311;50.298;8.514;2023-09-19T00:14:00;97160.0;;;19.6;81.9
69198;BME280;56311;50.298;8.514;2023-09-19T00:16:01;97160.0;;;19.7;82.0
69198;BME280;56311;50.298;8.514;2023-09-19T00:18:00;97160.0;;;19.9;81.5
69198;BME280;56311;50.298;8.514;2023-09-19T00:20:00;97160.0;;;19.7;81.8
69198;BME280;56311;50.298;8.514;2023-09-19T00:22:01;97170.0;;;19.5;81.9
69198;BME280;56311;50.298;8.514;2023-09-19T00:24:00;97170.0;;;20.0;80.5
69198;BME280;56311;50.298;8.514;2023-09-19T00:26:00;97170.0;;;20.1;80.8
69198;BME280;56311;50.298;8.514;2023-09-19T00:28:00;97180.0;;;19.9;81.3
69198;BME280;56311;50.298;8.514;2023-09-19T00:30:00;97170.0;;;19.7;81.5
69198;BME280;56311;50.298;8.514;2023-09-19T00:32:00;97170.0;;;19.8;81.6
69198;BME280;56311;50.298;8.514;2023-09-19T00:34:00;97170.0;;;19.8;81.1
69198;BME280;56311;50.298;8.514;2023-09-19T00:36:00;97180.0;;;20.0;80.3
69198;BME280;56311;50.298;8.514;2023-09-19T00:38:00;97180.0;;;20.0;80.0
69198;BME280;56311;50.298;8.514;2023-09-19T00:40:00;97180.0;;;20.0;80.0
69198;BME280;56311;50.298;8.514;2023-09-19T00:42:00;97180.0;;;20.3;78.9
69198;BME280;56311;50.298;8.514;2023-09-19T00:44:00;97180.0;;;20.0;79.9
69198;BME280;56311;50.298;8.514;2023-09-19T00:46:00;97180.0;;;20.2;79.5
69198;BME280;56311;50.298;8.514;2023-09-19T00:48:01;97190.0;;;20.2;79.0
69198;BME280;56311;50.298;8.514;2023-09-19T00:50:00;97190.0;;;20.2;79.1
69198;BME280;56311;50.298;8.514;2023-09-19T00:52:00;97190.0;;;20.2;78.7
69198;BME280;56311;50.298;8.514;2023-09-19T00:54:02;97190.0;;;19.9;79.4
69198;BME280;56311;50.298;8.514;2023-09-19T00:56:00;97190.0;;;20.3;78.9
69198;BME280;56311;50.298;8.514;2023-09-19T00:58:00;97190.0;;;19.7;81.3
69198;BME280;56311;50.298;8.514;2023-09-19T01:00:01;97190.0;;;19.1;83.7
69198;BME280;56311;50.298;8.514;2023-09-19T01:02:00;97200.0;;;19.1;84.7
69198;BME280;56311;50.298;8.514;2023-09-19T01:04:00;97200.0;;;19.3;83.3
69198;BME280;56311;50.298;8.514;2023-09-19T01:06:00;97200.0;;;19.4;83.0
69198;BME280;56311;50.298;8.514;2023-09-19T01:08:00;97210.0;;;19.3;83.0
69198;BME280;56311;50.298;8.514;2023-09-19T01:10:00;97210.0;;;19.3;81.7
69198;BME280;56311;50.298;8.514;2023-09-19T01:12:02;97210.0;;;19.0;82.1
69198;BME280;56311;50.298;8.514;2023-09-19T01:14:08;97210.0;;;19.2;80.5
69198;BME280;56311;50.298;8.514;2023-09-19T01:16:06;97220.0;;;19.4;80.1
69198;BME280;56311;50.298;8.514;2023-09-19T01:18:04;97220.0;;;19.4;79.5
69198;BME280;56311;50.298;8.514;2023-09-19T01:20:11;97220.0;;;19.4;79.0
69198;BME280;56311;50.298;8.514;2023-09-19T01:22:05;97230.0;;;19.3;78.9
69198;BME280;56311;50.298;8.514;2023-09-19T01:24:16;97230.0;;;19.5;78.6
69198;BME280;56311;50.298;8.514;2023-09-19T01:26:14;97230.0;;;19.4;79.0
69198;BME280;56311;50.298;8.514;2023-09-19T01:28:07;97230.0;;;19.0;79.4
69198;BME280;56311;50.298;8.514;2023-09-19T01:30:07;97240.0;;;19.2;78.6
69198;BME280;56311;50.298;8.514;2023-09-19T01:32:03;97240.0;;;19.4;77.9
69198;BME280;56311;50.298;8.514;2023-09-19T01:34:02;97240.0;;;19.9;76.4
69198;BME280;56311;50.298;8.514;2023-09-19T01:36:01;97240.0;;;19.5;76.9
69198;BME280;56311;50.298;8.514;2023-09-19T01:38:00;97240.0;;;18.7;78.6
69198;BME280;56311;50.298;8.514;2023-09-19T01:40:02;97250.0;;;19.1;77.4
69198;BME280;56311;50.298;8.514;2023-09-19T01:42:06;97250.0;;;19.3;77.2
69198;BME280;56311;50.298;8.514;2023-09-19T01:44:03;97250.0;;;19.0;77.6
69198;BME280;56311;50.298;8.514;2023-09-19T01:46:04;97250.0;;;18.8;78.1
69198;BME280;56311;50.298;8.514;2023-09-19T01:48:07;97250.0;;;18.8;78.4
69198;BME280;56311;50.298;8.514;2023-09-19T01:50:10;97250.0;;;18.5;79.6
69198;BME280;56311;50.298;8.514;2023-09-19T01:52:05;97260.0;;;18.7;79.5
69198;BME280;56311;50.298;8.514;2023-09-19T01:54:03;97250.0;;;18.5;79.8
69198;BME280;56311;50.298;8.514;2023-09-19T01:56:01;97260.0;;;18.8;79.0
69198;BME280;56311;50.298;8.514;2023-09-19T01:58:06;97260.0;;;19.0;78.4
69198;BME280;56311;50.298;8.514;2023-09-19T02:00:02;97260.0;;;19.0;78.3
69198;BME280;56311;50.298;8.514;2023-09-19T02:02:00;97260.0;;;18.9;78.5
69198;BME280;56311;50.298;8.514;2023-09-19T02:04:00;97260.0;;;18.7;79.4
69198;BME280;56311;50.298;8.514;2023-09-19T02:06:00;97270.0;;;18.8;79.0
69198;BME280;56311;50.298;8.514;2023-09-19T02:08:00;97270.0;;;19.1;77.8
69198;BME280;56311;50.298;8.514;2023-09-19T02:10:00;97280.0;;;19.0;77.9
69198;BME280;56311;50.298;8.514;2023-09-19T02:12:00;97280.0;;;19.2;77.0
69198;BME280;56311;50.298;8.514;2023-09-19T02:14:00;97270.0;;;18.6;78.8
69198;BME280;56311;50.298;8.514;2023-09-19T02:16:00;97270.0;;;18.4;79.3
69198;BME280;56311;50.298;8.514;2023-09-19T02:18:00;97270.0;;;18.5;79.3
69198;BME280;56311;50.298;8.514;2023-09-19T02:20:00;97270.0;;;18.4;79.2
69198;BME280;56311;50.298;8.514;2023-09-19T02:22:00;97270.0;;;18.4;79.5
69198;BME280;56311;50.298;8.514;2023-09-19T02:24:00;97270.0;;;18.2;80.0
69198;BME280;56311;50.298;8.514;2023-09-19T02:26:01;97270.0;;;18.3;79.8
69198;BME280;56311;50.298;8.514;2023-09-19T02:28:00;97270.0;;;18.4;79.6
69198;BME280;56311;50.298;8.514;2023-09-19T02:30:00;97270.0;;;18.5;79.0
69198;BME280;56311;50.298;8.514;2023-09-19T02:32:01;97270.0;;;18.1;80.6
69198;BME280;56311;50.298;8.514;2023-09-19T02:34:00;97270.0;;;18.1;80.6
69198;BME280;56311;50.298;8.514;2023-09-19T02:36:00;97270.0;;;17.9;81.9
69198;BME280;56311;50.298;8.514;2023-09-19T02:38:00;97270.0;;;18.2;81.1
69198;BME280;56311;50.298;8.514;2023-09-19T02:40:00;97270.0;;;18.3;80.7
69198;BME280;56311;50.298;8.514;2023-09-19T02:42:01;97270.0;;;18.5;79.2
69198;BME280;56311;50.298;8.514;2023-09-19T02:44:00;97280.0;;;18.3;80.0
69198;BME280;56311;50.298;8.514;2023-09-19T02:46:00;97280.0;;;18.0;81.4
69198;BME280;56311;50.298;8.514;2023-09-19T02:48:00;97270.0;;;18.1;81.1
69198;BME280;56311;50.298;8.514;2023-09-19T02:50:00;97270.0;;;18.2;79.9
69198;BME280;56311;50.298;8.514;2023-09-19T02:52:00;97270.0;;;18.2;79.0
69198;BME280;56311;50.298;8.514;2023-09-19T02:54:00;97270.0;;;18.2;78.9
69198;BME280;56311;50.298;8.514;2023-09-19T02:56:00;97280.0;;;18.2;78.6
69198;BME280;56311;50.298;8.514;2023-09-19T02:58:00;97280.0;;;18.0;79.1
69198;BME280;56311;50.298;8.514;2023-09-19T03:00:00;97270.0;;;18.1;79.1
69198;BME280;56311;50.298;8.514;2023-09-19T03:02:00;97280.0;;;18.0;79.3
69198;BME280;56311;50.298;8.514;2023-09-19T03:04:00;97280.0;;;18.1;78.5
69198;BME280;56311;50.298;8.514;2023-09-19T03:06:00;97280.0;;;18.1;78.6
69198;BME280;56311;50.298;8.514;2023-09-19T03:08:01;97280.0;;;18.2;78.2
69198;BME280;56311;50.298;8.514;2023-09-19T03:10:00;97280.0;;;18.1;78.0
69198;BME280;56311;50.298;8.514;2023-09-19T03:12:02;97280.0;;;18.4;77.2
69198;BME280;56311;50.298;8.514;2023-09-19T03:14:00;97280.0;;;18.3;77.1
69198;BME280;56311;50.298;8.514;2023-09-19T03:16:00;97280.0;;;18.2;77.4
69198;BME280;56311;50.298;8.514;2023-09-19T03:18:00;97280.0;;;18.4;77.1
69198;BME280;56311;50.298;8.514;2023-09-19T03:20:00;97290.0;;;18.4;77.2
69198;BME280;56311;50.298;8.514;2023-09-19T03:22:00;97290.0;;;18.2;77.3
69198;BME280;56311;50.298;8.514;2023-09-19T03:24:00;97290.0;;;18.3;76.6
69198;BME280;56311;50.298;8.514;2023-09-19T03:26:00;97290.0;;;18.3;77.0
69198;BME280;56311;50.298;8.514;2023-09-19T03:28:00;97300.0;;;18.4;76.7
69198;BME280;56311;50.298;8.514;2023-09-19T03:30:00;97300.0;;;18.5;75.8
69198;BME280;56311;50.298;8.514;2023-09-19T03:32:00;97300.0;;;18.4;76.0
69198;BME280;56311;50.298;8.514;2023-09-19T03:34:00;97300.0;;;18.4;76.0
69198;BME280;56311;50.298;8.514;2023-09-19T03:36:01;97300.0;;;18.3;76.3
69198;BME280;56311;50.298;8.514;2023-09-19T03:38:00;97300.0;;;18.3;75.8
69198;BME280;56311;50.298;8.514;2023-09-19T03:40:00;97290.0;;;18.3;75.8
69198;BME280;56311;50.298;8.514;2023-09-19T03:42:00;97290.0;;;18.4;75.6
69198;BME280;56311;50.298;8.514;2023-09-19T03:44:00;97290.0;;;18.2;76.1
69198;BME280;56311;50.298;8.514;2023-09-19T03:46:01;97300.0;;;18.1;76.2
69198;BME280;56311;50.298;8.514;2023-09-19T03:48:00;97300.0;;;18.1;76.3
69198;BME280;56311;50.298;8.514;2023-09-19T03:50:00;97300.0;;;18.1;75.9
69198;BME280;56311;50.298;8.514;2023-09-19T03:52:00;97300.0;;;18.1;75.9
69198;BME280;56311;50.298;8.514;2023-09-19T03:54:00;97300.0;;;18.1;75.9
69198;BME280;56311;50.298;8.514;2023-09-19T03:56:00;97300.0;;;18.2;75.5
69198;BME280;56311;50.298;8.514;2023-09-19T03:58:00;97300.0;;;18.4;74.7
69198;BME280;56311;50.298;8.514;2023-09-19T04:00:01;97300.0;;;18.2;75.1
69198;BME280;56311;50.298;8.514;2023-09-19T04:02:00;97300.0;;;18.1;75.7
69198;BME280;56311;50.298;8.514;2023-09-19T04:04:00;97300.0;;;17.9;76.6
69198;BME280;56311;50.298;8.514;2023-09-19T04:06:00;97300.0;;;17.9;76.5
69198;BME280;56311;50.298;8.514;2023-09-19T04:08:00;97300.0;;;17.8;76.3
69198;BME280;56311;50.298;8.514;2023-09-19T04:10:01;97290.0;;;17.8;76.7
69198;BME280;56311;50.298;8.514;2023-09-19T04:12:00;97290.0;;;17.8;77.3
69198;BME280;56311;50.298;8.514;2023-09-19T04:14:02;97300.0;;;17.7;77.6
69198;BME280;56311;50.298;8.514;2023-09-19T04:16:00;97300.0;;;17.7;77.7
69198;BME280;56311;50.298;8.514;2023-09-19T04:18:00;97310.0;;;17.8;77.4
69198;BME280;56311;50.298;8.514;2023-09-19T04:20:00;97310.0;;;17.6;77.7
69198;BME280;56311;50.298;8.514;2023-09-19T04:22:00;97320.0;;;17.5;78.3
69198;BME280;56311;50.298;8.514;2023-09-19T04:24:00;97320.0;;;17.7;78.4
69198;BME280;56311;50.298;8.514;2023-09-19T04:26:00;97320.0;;;17.7;77.8
69198;BME280;56311;50.298;8.514;2023-09-19T04:28:00;97330.0;;;17.9;77.2
69198;BME280;56311;50.298;8.514;2023-09-19T04:30:00;97320.0;;;18.1;76.6
69198;BME280;56311;50.298;8.514;2023-09-19T04:32:00;97330.0;;;18.0;76.9
69198;BME280;56311;50.298;8.514;2023-09-19T04:34:00;97320.0;;;18.2;75.7
69198;BME280;56311;50.298;8.514;2023-09-19T04:36:00;97320.0;;;17.9;76.6
69198;BME280;56311;50.298;8.514;2023-09-19T04:38:00;97330.0;;;17.7;77.6
69198;BME280;56311;50.298;8.514;2023-09-19T04:40:00;97330.0;;;17.8;77.7
69198;BME280;56311;50.298;8.514;2023-09-19T04:42:00;97330.0;;;17.5;78.4
69198;BME280;56311;50.298;8.514;2023-09-19T04:44:00;97340.0;;;17.9;77.1
69198;BME280;56311;50.298;8.514;2023-09-19T04:46:00;97330.0;;;17.6;78.1
69198;BME280;56311;50.298;8.514;2023-09-19T04:48:00;97340.0;;;17.6;78.6
69198;BME280;56311;50.298;8.514;2023-09-19T04:50:00;97340.0;;;18.1;76.5
69198;BME280;56311;50.298;8.514;2023-09-19T04:52:00;97340.0;;;18.3;75.4
69198;BME280;56311;50.298;8.514;2023-09-19T04:54:01;97340.0;;;18.0;77.0
69198;BME280;56311;50.298;8.514;2023-09-19T04:56:00;97340.0;;;18.6;74.7
69198;BME280;56311;50.298;8.514;2023-09-19T04:58:00;97340.0;;;18.0;75.9
69198;BME280;56311;50.298;8.514;2023-09-19T05:00:00;97340.0;;;17.9;76.9
69198;BME280;56311;50.298;8.514;2023-09-19T05:02:00;97340.0;;;17.8;77.4
69198;BME280;56311;50.298;8.514;2023-09-19T05:04:00;97340.0;;;18.0;76.7
69198;BME280;56311;50.298;8.514;2023-09-19T05:06:00;97350.0;;;18.1;76.8
69198;BME280;56311;50.298;8.514;2023-09-19T05:08:00;97350.0;;;18.0;77.0
69198;BME280;56311;50.298;8.514;2023-09-19T05:10:00;97350.0;;;17.8;77.6
69198;BME280;56311;50.298;8.514;2023-09-19T05:12:00;97350.0;;;17.8;77.6
69198;BME280;56311;50.298;8.514;2023-09-19T05:14:00;97350.0;;;18.1;76.2
69198;BME280;56311;50.298;8.514;2023-09-19T05:16:00;97350.0;;;18.0;76.6
69198;BME280;56311;50.298;8.514;2023-09-19T05:18:00;97360.0;;;17.8;78.0
69198;BME280;56311;50.298;8.514;2023-09-19T05:20:01;97360.0;;;17.8;77.9
69198;BME280;56311;50.298;8.514;2023-09-19T05:22:00;97360.0;;;17.7;77.9
69198;BME280;56311;50.298;8.514;2023-09-19T05:24:00;97370.0;;;18.2;76.9
69198;BME280;56311;50.298;8.514;2023-09-19T05:26:00;97370.0;;;18.1;76.7
69198;BME280;56311;50.298;8.514;2023-09-19T05:28:00;97370.0;;;18.0;76.8
69198;BME280;56311;50.298;8.514;2023-09-19T05:30:00;97380.0;;;18.4;75.5
69198;BME280;56311;50.298;8.514;2023-09-19T05:32:00;97370.0;;;18.4;75.1
69198;BME280;56311;50.298;8.514;2023-09-19T05:34:00;97370.0;;;18.4;75.2
69198;BME280;56311;50.298;8.514;2023-09-19T05:36:01;97380.0;;;18.7;74.2
69198;BME280;56311;50.298;8.514;2023-09-19T05:38:00;97370.0;;;18.4;75.0
69198;BME280;56311;50.298;8.514;2023-09-19T05:40:00;97370.0;;;18.6;74.8
69198;BME280;56311;50.298;8.514;2023-09-19T05:42:00;97370.0;;;18.5;74.3
69198;BME280;56311;50.298;8.514;2023-09-19T05:44:00;97380.0;;;18.5;74.6
69198;BME280;56311;50.298;8.514;2023-09-19T05:46:00;97370.0;;;18.7;73.9
69198;BME280;56311;50.298;8.514;2023-09-19T05:48:07;97380.0;;;18.8;73.4
69198;BME280;56311;50.298;8.514;2023-09-19T05:50:00;97380.0;;;18.8;72.7
69198;BME280;56311;50.298;8.514;2023-09-19T05:52:00;97380.0;;;19.1;71.6
69198;BME280;56311;50.298;8.514;2023-09-19T05:54:00;97380.0;;;19.0;71.9
69198;BME280;56311;50.298;8.514;2023-09-19T05:56:00;97380.0;;;18.9;72.0
69198;BME280;56311;50.298;8.514;2023-09-19T05:58:00;97390.0;;;19.0;71.5
69198;BME280;56311;50.298;8.514;2023-09-19T06:00:00;97390.0;;;18.9;72.4
69198;BME280;56311;50.298;8.514;2023-09-19T06:02:00;97390.0;;;18.4;73.6
69198;BME280;56311;50.298;8.514;2023-09-19T06:04:00;97380.0;;;18.6;73.0
69198;BME280;56311;50.298;8.514;2023-09-19T06:06:00;97390.0;;;18.8;72.3
69198;BME280;56311;50.298;8.514;2023-09-19T06:08:00;97390.0;;;18.9;72.1
69198;BME280;56311;50.298;8.514;2023-09-19T06:10:00;97390.0;;;18.8;71.8
69198;BME280;56311;50.298;8.514;2023-09-19T06:12:00;97400.0;;;19.2;70.5
69198;BME280;56311;50.298;8.514;2023-09-19T06:14:00;97400.0;;;19.4;69.7
69198;BME280;56311;50.298;8.514;2023-09-19T06:16:00;97410.0;;;19.6;69.0
69198;BME280;56311;50.298;8.514;2023-09-19T06:18:00;97410.0;;;19.5;69.5
69198;BME280;56311;50.298;8.514;2023-09-19T06:20:00;97420.0;;;19.0;70.6
69198;BME280;56311;50.298;8.514;2023-09-19T06:22:00;97420.0;;;19.1;70.8
69198;BME280;56311;50.298;8.514;2023-09-19T06:24:00;97420.0;;;19.3;70.0
69198;BME280;56311;50.298;8.514;2023-09-19T06:26:00;97420.0;;;19.0;70.6
69198;BME280;56311;50.298;8.514;2023-09-19T06:28:00;97430.0;;;18.5;72.7
69198;BME280;56311;50.298;8.514;2023-09-19T06:30:00;97430.0;;;18.5;73.4
69198;BME280;56311;50.298;8.514;2023-09-19T06:32:00;97420.0;;;18.7;73.2
69198;BME280;56311;50.298;8.514;2023-09-19T06:34:00;97420.0;;;18.5;73.2
69198;BME280;56311;50.298;8.514;2023-09-19T06:36:02;97430.0;;;18.6;73.3
69198;BME280;56311;50.298;8.514;2023-09-19T06:38:02;97430.0;;;18.9;71.8
69198;BME280;56311;50.298;8.514;2023-09-19T06:40:00;97440.0;;;19.0;71.8
69198;BME280;56311;50.298;8.514;2023-09-19T06:42:00;97440.0;;;19.0;72.0
69198;BME280;56311;50.298;8.514;2023-09-19T06:44:00;97440.0;;;18.8;72.2
69198;BME280;56311;50.298;8.514;2023-09-19T06:46:00;97440.0;;;18.4;74.0
69198;BME280;56311;50.298;8.514;2023-09-19T06:48:00;97440.0;;;18.7;73.3
69198;BME280;56311;50.298;8.514;2023-09-19T06:50:00;97450.0;;;18.8;72.7
69198;BME280;56311;50.298;8.514;2023-09-19T06:52:00;97450.0;;;18.6;73.6
69198;BME280;56311;50.298;8.514;2023-09-19T06:54:00;97460.0;;;18.2;74.5
69198;BME280;56311;50.298;8.514;2023-09-19T06:56:00;97460.0;;;18.6;73.5
69198;BME280;56311;50.298;8.514;2023-09-19T06:58:00;97470.0;;;18.8;73.2
69198;BME280;56311;50.298;8.514;2023-09-19T07:00:00;97470.0;;;18.7;72.7
69198;BME280;56311;50.298;8.514;2023-09-19T07:02:00;97470.0;;;18.7;72.4
69198;BME280;56311;50.298;8.514;2023-09-19T07:04:00;97470.0;;;18.7;72.7
69198;BME280;56311;50.298;8.514;2023-09-19T07:06:00;97480.0;;;18.7;72.2
69198;BME280;56311;50.298;8.514;2023-09-19T07:08:00;97480.0;;;18.7;73.4
69198;BME280;56311;50.298;8.514;2023-09-19T07:10:00;97480.0;;;18.8;72.8
69198;BME280;56311;50.298;8.514;2023-09-19T07:12:00;97490.0;;;18.9;72.8
69198;BME280;56311;50.298;8.514;2023-09-19T07:14:00;97490.0;;;18.9;71.7
69198;BME280;56311;50.298;8.514;2023-09-19T07:16:00;97490.0;;;18.1;74.3
69198;BME280;56311;50.298;8.514;2023-09-19T07:18:00;97490.0;;;18.1;74.2
69198;BME280;56311;50.298;8.514;2023-09-19T07:20:00;97500.0;;;18.2;73.4
69198;BME280;56311;50.298;8.514;2023-09-19T07:22:00;97500.0;;;18.4;71.6
69198;BME280;56311;50.298;8.514;2023-09-19T07:24:00;97500.0;;;18.4;71.5
69198;BME280;56311;50.298;8.514;2023-09-19T07:26:00;97500.0;;;18.4;70.8
69198;BME280;56311;50.298;8.514;2023-09-19T07:28:00;97500.0;;;18.7;70.7
69198;BME280;56311;50.298;8.514;2023-09-19T07:30:00;97510.0;;;18.6;70.4
69198;BME280;56311;50.298;8.514;2023-09-19T07:32:00;97510.0;;;18.6;69.8
69198;BME280;56311;50.298;8.514;2023-09-19T07:34:00;97510.0;;;19.0;68.6
69198;BME280;56311;50.298;8.514;2023-09-19T07:36:00;97520.0;;;18.4;70.5
69198;BME280;56311;50.298;8.514;2023-09-19T07:38:00;97520.0;;;18.2;70.2
69198;BME280;56311;50.298;8.514;2023-09-19T07:40:00;97510.0;;;18.7;69.2
69198;BME280;56311;50.298;8.514;2023-09-19T07:42:00;97510.0;;;19.2;67.6
69198;BME280;56311;50.298;8.514;2023-09-19T07:44:00;97520.0;;;19.2;68.1
69198;BME280;56311;50.298;8.514;2023-09-19T07:46:02;97530.0;;;18.5;67.9
69198;BME280;56311;50.298;8.514;2023-09-19T07:48:00;97520.0;;;18.7;67.7
69198;BME280;56311;50.298;8.514;2023-09-19T07:50:00;97530.0;;;18.9;66.9
69198;BME280;56311;50.298;8.514;2023-09-19T07:52:00;97530.0;;;18.8;67.1
69198;BME280;56311;50.298;8.514;2023-09-19T07:54:00;97530.0;;;18.9;66.4
69198;BME280;56311;50.298;8.514;2023-09-19T07:56:01;97530.0;;;19.0;67.1
69198;BME280;56311;50.298;8.514;2023-09-19T07:58:00;97520.0;;;19.1;66.3
69198;BME280;56311;50.298;8.514;2023-09-19T08:00:00;97530.0;;;19.0;65.9
69198;BME280;56311;50.298;8.514;2023-09-19T08:02:00;97530.0;;;19.4;64.9
69198;BME280;56311;50.298;8.514;2023-09-19T08:04:00;97530.0;;;18.9;66.4
69198;BME280;56311;50.298;8.514;2023-09-19T08:06:00;97530.0;;;18.8;67.1
69198;BME280;56311;50.298;8.514;2023-09-19T08:08:00;97530.0;;;19.4;65.1
69198;BME280;56311;50.298;8.514;2023-09-19T08:10:00;97530.0;;;19.1;63.8
69198;BME280;56311;50.298;8.514;2023-09-19T08:12:00;97530.0;;;19.2;64.5
69198;BME280;56311;50.298;8.514;2023-09-19T08:14:00;97530.0;;;19.4;64.2
69198;BME280;56311;50.298;8.514;2023-09-19T08:16:00;97540.0;;;19.6;63.3
69198;BME280;56311;50.298;8.514;2023-09-19T08:18:00;97540.0;;;19.1;64.0
69198;BME280;56311;50.298;8.514;2023-09-19T08:20:00;97540.0;;;19.4;63.7
69198;BME280;56311;50.298;8.514;2023-09-19T08:22:00;97560.0;;;19.4;63.8
69198;BME280;56311;50.298;8.514;2023-09-19T08:24:00;97550.0;;;19.4;61.5
69198;BME280;56311;50.298;8.514;2023-09-19T08:26:00;97550.0;;;19.7;62.3
69198;BME280;56311;50.298;8.514;2023-09-19T08:28:00;97550.0;;;19.4;61.9
69198;BME280;56311;50.298;8.514;2023-09-19T08:30:00;97550.0;;;19.3;59.5
69198;BME280;56311;50.298;8.514;2023-09-19T08:32:00;97560.0;;;19.2;60.5
69198;BME280;56311;50.298;8.514;2023-09-19T08:34:00;97560.0;;;19.4;60.6
69198;BME280;56311;50.298;8.514;2023-09-19T08:36:00;97560.0;;;19.6;60.9
69198;BME280;56311;50.298;8.514;2023-09-19T08:38:01;97560.0;;;19.8;59.9
69198;BME280;56311;50.298;8.514;2023-09-19T08:40:00;97560.0;;;19.6;59.3
69198;BME280;56311;50.298;8.514;2023-09-19T08:42:01;97560.0;;;20.0;58.2
69198;BME280;56311;50.298;8.514;2023-09-19T08:44:00;97550.0;;;19.9;58.0
69198;BME280;56311;50.298;8.514;2023-09-19T08:46:09;97560.0;;;20.3;57.2
69198;BME280;56311;50.298;8.514;2023-09-19T08:48:16;97560.0;;;20.1;56.4
69198;BME280;56311;50.298;8.514;2023-09-19T08:50:04;97560.0;;;20.5;56.3
69198;BME280;56311;50.298;8.514;2023-09-19T08:52:05;97550.0;;;20.9;55.4
69198;BME280;56311;50.298;8.514;2023-09-19T08:54:03;97550.0;;;20.8;55.7
69198;BME280;56311;50.298;8.514;2023-09-19T08:56:01;97550.0;;;20.4;54.6
69198;BME280;56311;50.298;8.514;2023-09-19T08:58:03;97550.0;;;20.8;54.5
69198;BME280;56311;50.298;8.514;2023-09-19T09:00:01;97560.0;;;20.2;52.6
69198;BME280;56311;50.298;8.514;2023-09-19T09:02:01;97550.0;;;20.1;53.8
69198;BME280;56311;50.298;8.514;2023-09-19T09:04:02;97560.0;;;20.4;54.9
69198;BME280;56311;50.298;8.514;2023-09-19T09:06:01;97560.0;;;20.8;52.3
69198;BME280;56311;50.298;8.514;2023-09-19T09:08:00;97570.0;;;20.7;53.0
69198;BME280;56311;50.298;8.514;2023-09-19T09:10:02;97560.0;;;20.3;52.6
69198;BME280;56311;50.298;8.514;2023-09-19T09:12:00;97570.0;;;20.2;50.5
69198;BME280;56311;50.298;8.514;2023-09-19T09:14:00;97570.0;;;20.1;50.8
69198;BME280;56311;50.298;8.514;2023-09-19T09:16:00;97580.0;;;20.2;50.1
69198;BME280;56311;50.298;8.514;2023-09-19T09:18:00;97560.0;;;20.0;50.1
69198;BME280;56311;50.298;8.514;2023-09-19T09:20:00;97570.0;;;20.5;50.3
69198;BME280;56311;50.298;8.514;2023-09-19T09:22:08;97560.0;;;20.8;50.3
69198;BME280;56311;50.298;8.514;2023-09-19T09:24:00;97570.0;;;20.7;50.1
69198;BME280;56311;50.298;8.514;2023-09-19T09:26:00;97560.0;;;20.5;51.0
69198;BME280;56311;50.298;8.514;2023-09-19T09:28:01;97570.0;;;20.6;50.2
69198;BME280;56311;50.298;8.514;2023-09-19T09:30:00;97570.0;;;20.7;50.2
69198;BME280;56311;50.298;8.514;2023-09-19T09:32:18;97570.0;;;20.6;50.0
69198;BME280;56311;50.298;8.514;2023-09-19T09:34:00;97560.0;;;20.5;49.5
69198;BME280;56311;50.298;8.514;2023-09-19T09:36:02;97560.0;;;20.4;48.9
69198;BME280;56311;50.298;8.514;2023-09-19T09:38:00;97560.0;;;20.6;49.6
69198;BME280;56311;50.298;8.514;2023-09-19T09:40:01;97560.0;;;20.9;49.3
69198;BME280;56311;50.298;8.514;2023-09-19T09:42:00;97570.0;;;20.9;49.0
69198;BME280;56311;50.298;8.514;2023-09-19T09:44:11;97570.0;;;20.5;49.7
69198;BME280;56311;50.298;8.514;2023-09-19T09:46:10;97570.0;;;20.8;49.8
69198;BME280;56311;50.298;8.514;2023-09-19T09:48:01;97570.0;;;20.8;49.9
69198;BME280;56311;50.298;8.514;2023-09-19T09:50:00;97570.0;;;20.8;50.5
69198;BME280;56311;50.298;8.514;2023-09-19T09:52:01;97570.0;;;21.0;48.9
69198;BME280;56311;50.298;8.514;2023-09-19T09:54:10;97580.0;;;21.0;48.9
69198;BME280;56311;50.298;8.514;2023-09-19T09:56:02;97570.0;;;21.4;47.9
69198;BME280;56311;50.298;8.514;2023-09-19T09:58:18;97580.0;;;21.1;48.0
69198;BME280;56311;50.298;8.514;2023-09-19T10:00:01;97570.0;;;20.6;48.8
69198;BME280;56311;50.298;8.514;2023-09-19T10:02:01;97580.0;;;21.0;48.8
69198;BME280;56311;50.298;8.514;2023-09-19T10:04:00;97570.0;;;21.4;47.7
69198;BME280;56311;50.298;8.514;2023-09-19T10:06:00;97570.0;;;21.6;47.2
69198;BME280;56311;50.298;8.514;2023-09-19T10:08:10;97580.0;;;21.7;47.3
69198;BME280;56311;50.298;8.514;2023-09-19T10:10:01;97570.0;;;22.0;47.5
69198;BME280;56311;50.298;8.514;2023-09-19T10:12:05;97570.0;;;22.2;47.7
69198;BME280;56311;50.298;8.514;2023-09-19T10:14:01;97560.0;;;22.1;46.7
69198;BME280;56311;50.298;8.514;2023-09-19T10:16:06;97560.0;;;22.3;46.0
69198;BME280;56311;50.298;8.514;2023-09-19T10:18:01;97560.0;;;22.8;45.3
69198;BME280;56311;50.298;8.514;2023-09-19T10:20:01;97570.0;;;22.5;45.2
69198;BME280;56311;50.298;8.514;2023-09-19T10:22:01;97560.0;;;22.0;46.0
69198;BME280;56311;50.298;8.514;2023-09-19T10:24:01;97560.0;;;22.4;45.1
69198;BME280;56311;50.298;8.514;2023-09-19T10:26:01;97580.0;;;22.5;45.6
69198;BME280;56311;50.298;8.514;2023-09-19T10:28:01;97570.0;;;22.4;44.6
69198;BME280;56311;50.298;8.514;2023-09-19T10:30:01;97570.0;;;22.5;43.8
69198;BME280;56311;50.298;8.514;2023-09-19T10:32:00;97560.0;;;22.6;43.2
69198;BME280;56311;50.298;8.514;2023-09-19T10:34:03;97570.0;;;22.8;42.8
69198;BME280;56311;50.298;8.514;2023-09-19T10:36:00;97560.0;;;22.7;42.7
69198;BME280;56311;50.298;8.514;2023-09-19T10:38:01;97570.0;;;22.6;42.5
69198;BME280;56311;50.298;8.514;2023-09-19T10:40:00;97570.0;;;21.8;41.7
69198;BME280;56311;50.298;8.514;2023-09-19T10:42:02;97570.0;;;22.3;43.0
69198;BME280;56311;50.298;8.514;2023-09-19T10:44:02;97570.0;;;23.0;42.2
69198;BME280;56311;50.298;8.514;2023-09-19T10:46:01;97570.0;;;22.8;42.1
69198;BME280;56311;50.298;8.514;2023-09-19T10:48:01;97560.0;;;22.3;42.8
69198;BME280;56311;50.298;8.514;2023-09-19T10:50:01;97570.0;;;22.8;42.7
69198;BME280;56311;50.298;8.514;2023-09-19T10:52:00;97570.0;;;23.0;41.8
69198;BME280;56311;50.298;8.514;2023-09-19T10:54:06;97570.0;;;22.2;42.9
69198;BME280;56311;50.298;8.514;2023-09-19T10:56:01;97570.0;;;22.4;42.6
69198;BME280;56311;50.298;8.514;2023-09-19T10:58:00;97570.0;;;22.5;42.6
69198;BME280;56311;50.298;8.514;2023-09-19T11:00:02;97580.0;;;22.6;42.6